createdAt,value
2023-02-23T00:02:24.920Z,61.68
2023-02-23T00:04:53.823Z,60.87
2023-02-23T00:07:22.729Z,60.29
2023-02-23T00:09:52.987Z,60.48
2023-02-23T00:12:24.033Z,60.07
2023-02-23T00:14:54.258Z,59.81
2023-02-23T00:17:24.521Z,58.27
2023-02-23T00:19:53.587Z,57.75
2023-02-23T00:22:22.440Z,58.69
2023-02-23T00:24:51.283Z,57.76
2023-02-23T00:27:21.218Z,59.27
2023-02-23T00:29:51.073Z,58.06
2023-02-23T00:32:21.506Z,57.76
2023-02-23T00:34:53.263Z,60.13
2023-02-23T00:37:23.543Z,59.58
2023-02-23T00:39:52.984Z,59.71
2023-02-23T00:42:21.885Z,63.14
2023-02-23T00:44:51.144Z,60.52
2023-02-23T00:47:21.546Z,60.18
2023-02-23T00:49:51.608Z,59.99
2023-02-23T00:52:21.288Z,63.93
2023-02-23T00:54:51.576Z,64.14
2023-02-23T00:57:20.468Z,62.95
2023-02-23T00:59:51.548Z,61.48
2023-02-23T01:02:21.850Z,60.77
2023-02-23T01:04:51.754Z,59.72
2023-02-23T01:07:20.562Z,59.84
2023-02-23T01:09:49.707Z,60.12
2023-02-23T01:12:18.609Z,58.95
2023-02-23T01:14:47.767Z,58.86
2023-02-23T01:17:17.996Z,62.07
2023-02-23T01:19:48.303Z,60.78
2023-02-23T01:22:17.252Z,60.81
2023-02-23T01:24:47.508Z,60.84
2023-02-23T01:27:16.304Z,59.55
2023-02-23T01:29:45.169Z,59.41
2023-02-23T01:32:16.864Z,59.35
2023-02-23T01:34:45.940Z,58.80
2023-02-23T01:37:16.792Z,59.34
2023-02-23T01:39:46.406Z,59.41
2023-02-23T01:42:15.632Z,59.99
2023-02-23T01:45:26.202Z,59.21
2023-02-23T01:48:01.787Z,59.19
2023-02-23T01:50:46.508Z,60.16
2023-02-23T01:53:17.973Z,61.13
2023-02-23T01:55:49.857Z,62.57
2023-02-23T01:58:21.240Z,62.03
2023-02-23T02:00:54.458Z,60.86
2023-02-23T02:03:32.228Z,61.05
2023-02-23T02:06:03.297Z,61.40
2023-02-23T02:08:43.270Z,62.56
2023-02-23T02:11:26.310Z,62.91
2023-02-23T02:13:58.307Z,62.61
2023-02-23T02:16:45.174Z,59.78
2023-02-23T02:19:39.095Z,60.02
2023-02-23T02:22:27.505Z,59.28
2023-02-23T02:25:42.335Z,58.51
2023-02-23T02:28:43.325Z,58.38
2023-02-23T02:31:58.778Z,60.76
2023-02-23T02:35:05.848Z,60.54
2023-02-23T02:38:04.081Z,58.88
2023-02-23T02:40:53.355Z,60.04
2023-02-23T02:43:32.524Z,61.51
2023-02-23T02:46:11.469Z,61.93
2023-02-23T02:48:47.982Z,62.94
2023-02-23T02:51:26.244Z,61.05
2023-02-23T02:54:07.164Z,61.52
2023-02-23T02:56:40.681Z,60.32
2023-02-23T02:59:32.229Z,60.05
2023-02-23T03:02:19.102Z,60.01
2023-02-23T03:05:05.219Z,61.51
2023-02-23T03:07:59.468Z,61.54
2023-02-23T03:10:55.343Z,63.30
2023-02-23T03:13:46.407Z,65.17
2023-02-23T03:16:44.396Z,64.07
2023-02-23T03:19:39.121Z,63.42
2023-02-23T03:22:34.483Z,64.33
2023-02-23T03:25:26.864Z,64.38
2023-02-23T03:28:25.461Z,64.29
2023-02-23T03:31:26.044Z,64.60
2023-02-23T03:34:19.667Z,64.30
2023-02-23T03:37:11.288Z,63.80
2023-02-23T03:40:02.264Z,64.04
2023-02-23T03:42:54.561Z,64.50
2023-02-23T03:45:44.440Z,64.00
2023-02-23T03:48:34.625Z,66.68
2023-02-23T03:51:25.806Z,66.49
2023-02-23T03:54:20.645Z,69.42
2023-02-23T03:57:10.479Z,72.35
2023-02-23T04:00:02.042Z,72.14
2023-02-23T04:02:54.712Z,68.73
2023-02-23T04:05:42.583Z,67.14
2023-02-23T04:08:32.556Z,69.07
2023-02-23T04:11:28.019Z,67.86
2023-02-23T04:14:00.268Z,65.50
2023-02-23T04:16:29.420Z,64.51
2023-02-23T04:18:59.945Z,63.70
2023-02-23T04:21:29.575Z,63.74
2023-02-23T04:23:58.477Z,63.46
2023-02-23T04:26:27.375Z,67.22
2023-02-23T04:28:56.301Z,67.05
2023-02-23T04:31:26.190Z,66.05
2023-02-23T04:33:55.250Z,63.49
2023-02-23T04:36:26.880Z,63.00
2023-02-23T04:38:55.776Z,62.45
2023-02-23T04:41:24.602Z,62.63
2023-02-23T04:43:53.518Z,62.58
2023-02-23T04:46:22.492Z,66.31
2023-02-23T04:48:51.311Z,69.53
2023-02-23T04:51:20.332Z,68.10
2023-02-23T04:53:50.654Z,66.83
2023-02-23T04:56:19.486Z,66.45
2023-02-23T04:58:48.312Z,66.63
2023-02-23T05:01:17.603Z,66.32
2023-02-23T05:03:46.643Z,65.09
2023-02-23T05:06:15.662Z,64.71
2023-02-23T05:08:45.685Z,65.27
2023-02-23T05:11:16.131Z,65.97
2023-02-23T05:13:45.057Z,65.89
2023-02-23T05:16:14.004Z,77.31
2023-02-23T05:18:42.937Z,68.40
2023-02-23T05:21:13.187Z,60.57
2023-02-23T05:23:42.158Z,60.73
2023-02-23T05:26:13.469Z,53.83
2023-02-23T05:28:45.035Z,57.32
2023-02-23T05:31:14.376Z,53.70
2023-02-23T05:33:44.094Z,53.25
2023-02-23T05:36:16.417Z,54.19
2023-02-23T05:38:46.110Z,56.33
2023-02-23T05:41:16.791Z,55.65
2023-02-23T05:43:47.356Z,54.76
2023-02-23T05:46:18.079Z,51.79
2023-02-23T05:48:47.001Z,52.10
2023-02-23T05:51:18.062Z,51.23
2023-02-23T05:53:48.284Z,50.86
2023-02-23T05:56:20.779Z,50.32
2023-02-23T05:58:51.935Z,49.92
2023-02-23T06:01:21.948Z,48.56
2023-02-23T06:03:51.011Z,48.73
2023-02-23T06:06:20.626Z,47.20
2023-02-23T06:08:49.918Z,47.20
2023-02-23T06:11:19.266Z,46.31
2023-02-23T06:13:48.358Z,45.40
2023-02-23T06:16:18.672Z,45.15
2023-02-23T06:18:47.655Z,45.71
2023-02-23T06:21:16.665Z,46.88
2023-02-23T06:23:45.752Z,47.13
2023-02-23T06:26:14.975Z,45.65
2023-02-23T06:28:43.889Z,45.10
2023-02-23T06:31:13.273Z,44.17
2023-02-23T06:33:43.610Z,44.58
2023-02-23T06:36:12.517Z,46.10
2023-02-23T06:38:41.402Z,45.46
2023-02-23T06:41:10.842Z,46.12
2023-02-23T06:43:39.692Z,47.48
2023-02-23T06:46:08.737Z,48.26
2023-02-23T06:48:37.953Z,49.73
2023-02-23T06:51:08.388Z,52.24
2023-02-23T06:53:37.598Z,52.46
2023-02-23T06:56:07.071Z,55.16
2023-02-23T06:58:35.917Z,53.53
2023-02-23T07:01:04.826Z,53.28
2023-02-23T07:03:33.791Z,51.47
2023-02-23T07:06:04.778Z,48.83
2023-02-23T07:08:35.366Z,47.28
2023-02-23T07:11:08.940Z,45.74
2023-02-23T07:13:37.881Z,47.38
2023-02-23T07:16:07.980Z,47.72
2023-02-23T07:18:36.910Z,47.58
2023-02-23T07:21:06.105Z,48.23
2023-02-23T07:23:36.528Z,49.69
2023-02-23T07:26:05.579Z,49.20
2023-02-23T07:28:34.426Z,51.60
2023-02-23T07:31:03.923Z,53.46
2023-02-23T07:33:32.810Z,54.67
2023-02-23T07:36:01.824Z,52.69
2023-02-23T07:38:30.667Z,52.58
2023-02-23T07:41:00.953Z,51.44
2023-02-23T07:43:30.056Z,50.79
2023-02-23T07:46:00.586Z,48.43
2023-02-23T07:48:29.964Z,46.30
2023-02-23T07:50:58.942Z,44.72
2023-02-23T07:53:28.396Z,44.33
2023-02-23T07:55:57.869Z,44.89
2023-02-23T07:58:28.408Z,43.59
2023-02-23T08:00:57.837Z,43.26
2023-02-23T08:03:27.424Z,43.59
2023-02-23T08:05:56.314Z,43.22
2023-02-23T08:08:25.207Z,43.01
2023-02-23T08:11:01.983Z,43.00
2023-02-23T08:13:32.753Z,44.25
2023-02-23T08:16:01.715Z,44.96
2023-02-23T08:18:30.611Z,44.10
2023-02-23T08:21:00.401Z,44.72
2023-02-23T08:23:30.845Z,47.35
2023-02-23T08:26:00.689Z,46.13
2023-02-23T08:28:30.237Z,46.57
2023-02-23T08:31:00.923Z,43.65
2023-02-23T08:33:31.756Z,42.88
2023-02-23T08:36:03.010Z,42.44
2023-02-23T08:38:32.148Z,40.86
2023-02-23T08:41:02.041Z,40.06
2023-02-23T08:43:30.933Z,40.14
2023-02-23T08:46:01.417Z,39.56
2023-02-23T08:48:30.314Z,40.17
2023-02-23T08:50:59.909Z,38.80
2023-02-23T08:53:30.880Z,37.87
2023-02-23T08:56:00.803Z,36.76
2023-02-23T08:58:31.213Z,37.26
2023-02-23T09:01:03.347Z,34.74
2023-02-23T09:03:33.827Z,36.94
2023-02-23T09:06:09.691Z,35.71
2023-02-23T09:08:39.506Z,35.75
2023-02-23T09:11:08.398Z,37.56
2023-02-23T09:13:37.303Z,37.37
2023-02-23T09:16:09.653Z,36.60
2023-02-23T09:18:38.969Z,37.62
2023-02-23T09:21:10.980Z,37.36
2023-02-23T09:23:41.023Z,38.32
2023-02-23T09:26:10.197Z,36.88
2023-02-23T09:28:41.046Z,36.78
2023-02-23T09:31:13.210Z,36.62
2023-02-23T09:33:42.344Z,37.14
2023-02-23T09:36:16.346Z,37.59
2023-02-23T09:38:46.124Z,37.92
2023-02-23T09:41:51.639Z,38.05
2023-02-23T09:44:30.621Z,38.27
2023-02-23T09:47:15.210Z,38.54
2023-02-23T09:49:46.655Z,38.46
2023-02-23T09:52:20.099Z,38.22
2023-02-23T09:54:49.000Z,38.82
2023-02-23T09:57:24.840Z,38.76
2023-02-23T09:59:54.029Z,38.33
2023-02-23T10:02:34.677Z,38.69
2023-02-23T10:05:06.535Z,37.85
2023-02-23T10:07:47.345Z,36.61
2023-02-23T10:10:27.954Z,37.96
2023-02-23T10:13:09.653Z,37.90
2023-02-23T10:15:45.558Z,37.64
2023-02-23T10:18:44.966Z,37.65
2023-02-23T10:21:21.992Z,36.07
2023-02-23T10:23:55.376Z,36.60
2023-02-23T10:26:27.834Z,36.81
2023-02-23T10:28:59.992Z,34.92
2023-02-23T10:31:35.539Z,33.23
2023-02-23T10:34:14.838Z,32.50
2023-02-23T10:36:51.872Z,32.13
2023-02-23T10:39:20.767Z,32.63
2023-02-23T10:41:49.946Z,33.24
2023-02-23T10:44:21.990Z,31.20
2023-02-23T10:46:56.260Z,33.97
2023-02-23T10:49:31.660Z,32.79
2023-02-23T10:52:03.069Z,32.03
2023-02-23T10:54:44.601Z,33.31
2023-02-23T10:57:21.142Z,32.88
2023-02-23T11:00:03.792Z,32.12
2023-02-23T11:02:33.932Z,31.43
2023-02-23T11:05:05.589Z,32.31
2023-02-23T11:07:35.827Z,32.33
2023-02-23T11:10:27.615Z,32.71
2023-02-23T11:12:56.453Z,32.27
2023-02-23T11:15:48.610Z,33.36
2023-02-23T11:18:22.798Z,32.84
2023-02-23T11:20:53.431Z,31.63
2023-02-23T11:23:29.378Z,32.34
2023-02-23T11:26:02.477Z,31.23
2023-02-23T11:28:34.725Z,30.51
2023-02-23T11:31:14.997Z,28.37
2023-02-23T11:33:44.706Z,27.75
2023-02-23T11:36:26.750Z,29.88
2023-02-23T11:39:04.005Z,30.04
2023-02-23T11:41:35.322Z,30.19
2023-02-23T11:44:06.514Z,29.55
2023-02-23T11:46:39.791Z,30.34
2023-02-23T11:49:15.960Z,29.42
2023-02-23T11:51:50.261Z,28.10
2023-02-23T11:54:24.467Z,30.92
2023-02-23T11:56:55.319Z,30.62
2023-02-23T11:59:31.125Z,32.87
2023-02-23T12:02:07.237Z,32.02
2023-02-23T12:04:38.587Z,33.61
2023-02-23T12:07:38.970Z,33.63
2023-02-23T12:10:15.501Z,33.19
2023-02-23T12:12:50.938Z,33.89
2023-02-23T12:15:33.772Z,33.06
2023-02-23T12:18:09.513Z,32.69
2023-02-23T12:20:43.115Z,33.16
2023-02-23T12:23:16.365Z,32.85
2023-02-23T12:25:49.974Z,34.70
2023-02-23T12:28:26.944Z,33.90
2023-02-23T12:31:00.019Z,34.40
2023-02-23T12:33:35.378Z,34.83
2023-02-23T12:36:07.297Z,35.35
2023-02-23T12:38:48.843Z,34.23
2023-02-23T12:41:24.702Z,34.62
2023-02-23T12:44:00.850Z,34.51
2023-02-23T12:46:35.463Z,34.52
2023-02-23T12:49:13.965Z,35.57
2023-02-23T12:51:49.018Z,35.91
2023-02-23T12:54:19.930Z,35.26
2023-02-23T12:56:57.219Z,34.52
2023-02-23T12:59:51.096Z,34.29
2023-02-23T13:02:26.922Z,34.88
2023-02-23T13:05:24.345Z,36.16
2023-02-23T13:08:12.819Z,35.36
2023-02-23T13:10:52.236Z,37.19
2023-02-23T13:13:32.382Z,37.42
2023-02-23T13:16:09.924Z,36.63
2023-02-23T13:18:44.228Z,38.17
2023-02-23T13:21:20.985Z,37.88
2023-02-23T13:24:00.759Z,37.21
2023-02-23T13:26:40.236Z,38.46
2023-02-23T13:29:27.231Z,38.41
2023-02-23T13:31:56.693Z,37.97
2023-02-23T13:34:28.939Z,39.16
2023-02-23T13:37:00.186Z,40.01
2023-02-23T13:39:47.807Z,40.21
2023-02-23T13:42:28.186Z,39.65
2023-02-23T13:45:06.539Z,40.83
2023-02-23T13:47:45.513Z,41.07
2023-02-23T13:50:21.886Z,39.95
2023-02-23T13:52:51.052Z,40.30
2023-02-23T13:55:48.816Z,41.43
2023-02-23T13:58:28.138Z,41.69
2023-02-23T14:01:07.245Z,42.68
2023-02-23T14:03:42.635Z,43.32
2023-02-23T14:06:14.006Z,42.98
2023-02-23T14:08:45.135Z,43.10
2023-02-23T14:11:31.227Z,43.95
2023-02-23T14:14:03.524Z,44.15
2023-02-23T14:16:32.716Z,44.77
2023-02-23T14:19:13.056Z,44.30
2023-02-23T14:21:52.066Z,43.90
2023-02-23T14:24:23.832Z,44.21
2023-02-23T14:27:34.110Z,44.80
2023-02-23T14:30:16.843Z,45.07
2023-02-23T14:32:47.724Z,44.72
2023-02-23T14:35:42.742Z,45.26
2023-02-23T14:38:18.624Z,45.52
2023-02-23T14:40:51.706Z,44.58
2023-02-23T14:43:43.347Z,45.61
2023-02-23T14:46:22.794Z,46.19
2023-02-23T14:49:00.724Z,46.20
2023-02-23T14:51:44.887Z,45.65
2023-02-23T14:54:23.290Z,45.06
2023-02-23T14:56:54.979Z,45.39
2023-02-23T14:59:27.022Z,45.33
2023-02-23T15:02:02.100Z,44.72
2023-02-23T15:04:31.520Z,45.29
2023-02-23T15:07:03.229Z,46.52
2023-02-23T15:09:36.847Z,47.60
2023-02-23T15:12:14.980Z,48.23
2023-02-23T15:14:44.883Z,47.85
2023-02-23T15:17:22.040Z,48.46
2023-02-23T15:20:05.939Z,48.00
2023-02-23T15:22:42.815Z,48.85
2023-02-23T15:25:17.264Z,48.35
2023-02-23T15:27:47.397Z,49.73
2023-02-23T15:30:26.617Z,49.50
2023-02-23T15:33:04.764Z,50.00
2023-02-23T15:35:44.515Z,51.46
2023-02-23T15:38:42.331Z,51.83
2023-02-23T15:41:15.405Z,52.70
2023-02-23T15:43:44.676Z,55.43
2023-02-23T15:46:24.610Z,56.48
2023-02-23T15:48:56.758Z,58.48
2023-02-23T15:51:33.982Z,58.92
2023-02-23T15:54:07.900Z,60.30
2023-02-23T15:56:36.864Z,60.63
2023-02-23T15:59:13.142Z,62.34
2023-02-23T16:01:45.135Z,61.76
2023-02-23T16:04:20.116Z,63.19
2023-02-23T16:06:54.614Z,63.22
2023-02-23T16:09:28.602Z,64.04
2023-02-23T16:12:03.474Z,64.49
2023-02-23T16:14:37.669Z,65.25
2023-02-23T16:17:11.666Z,62.95
2023-02-23T16:19:45.016Z,63.92
2023-02-23T16:22:23.306Z,65.44
2023-02-23T16:25:00.448Z,66.09
2023-02-23T16:27:31.175Z,63.57
2023-02-23T16:30:06.673Z,64.90
2023-02-23T16:32:38.303Z,61.31
2023-02-23T16:35:17.953Z,60.94
2023-02-23T16:38:03.453Z,56.10
2023-02-23T16:40:32.945Z,58.03
2023-02-23T16:43:02.798Z,61.38
2023-02-23T16:45:31.921Z,65.10
2023-02-23T16:48:03.359Z,61.95
2023-02-23T16:50:40.513Z,60.98
2023-02-23T16:53:11.186Z,58.44
2023-02-23T16:55:43.620Z,60.88
2023-02-23T16:58:18.977Z,59.80
2023-02-23T17:00:48.108Z,60.89
2023-02-23T17:03:20.548Z,58.00
2023-02-23T17:05:51.150Z,58.56
2023-02-23T17:08:20.366Z,57.82
2023-02-23T17:10:52.249Z,58.08
2023-02-23T17:13:22.253Z,62.16
2023-02-23T17:15:53.730Z,62.52
2023-02-23T17:21:04.523Z,59.14
2023-02-23T17:23:42.520Z,56.41
2023-02-23T17:26:12.884Z,62.74
2023-02-23T17:28:42.006Z,60.37
2023-02-23T17:31:11.553Z,59.65
2023-02-23T17:33:42.380Z,61.14
2023-02-23T17:36:14.719Z,65.68
2023-02-23T17:38:44.976Z,68.45
2023-02-23T17:41:16.222Z,76.48
2023-02-23T17:43:45.473Z,76.07
2023-02-23T17:46:14.792Z,75.48
2023-02-23T17:48:47.372Z,72.46
2023-02-23T17:51:20.127Z,72.98
2023-02-23T17:53:49.252Z,72.17
2023-02-23T17:56:19.990Z,69.86
2023-02-23T17:58:48.958Z,71.00
2023-02-23T18:01:19.794Z,77.25
2023-02-23T18:03:51.054Z,77.01
2023-02-23T18:06:21.304Z,75.01
2023-02-23T18:08:50.286Z,74.20
2023-02-23T18:11:19.865Z,66.85
2023-02-23T18:13:51.219Z,65.51
2023-02-23T18:16:21.756Z,67.34
2023-02-23T18:18:50.775Z,68.58
2023-02-23T18:21:23.498Z,74.75
2023-02-23T18:23:52.925Z,75.93
2023-02-23T18:26:24.681Z,66.11
2023-02-23T18:28:55.337Z,65.41
2023-02-23T18:31:28.118Z,72.09
2023-02-23T18:33:58.060Z,75.35
2023-02-23T18:36:30.175Z,80.50
2023-02-23T18:39:00.924Z,76.51
2023-02-23T18:41:31.792Z,78.93
2023-02-23T18:44:02.015Z,79.68
2023-02-23T18:46:31.453Z,77.45
2023-02-23T18:49:00.643Z,74.40
2023-02-23T18:51:31.071Z,86.58
2023-02-23T18:54:00.819Z,89.01
2023-02-23T18:56:29.718Z,83.09
2023-02-23T18:59:00.336Z,83.67
2023-02-23T19:01:33.361Z,80.40
2023-02-23T19:04:03.710Z,81.95
2023-02-23T19:06:35.059Z,83.42
2023-02-23T19:09:07.882Z,92.33
2023-02-23T19:11:37.987Z,87.69
2023-02-23T19:14:09.518Z,87.81
2023-02-23T19:16:39.051Z,99.09
2023-02-23T19:19:09.506Z,100.00
2023-02-23T19:21:40.476Z,94.23
2023-02-23T19:24:09.762Z,89.08
2023-02-23T19:26:39.921Z,86.39
2023-02-23T19:29:09.097Z,88.94
2023-02-23T19:31:38.229Z,87.40
2023-02-23T19:34:08.928Z,86.89
2023-02-23T19:36:40.180Z,87.67
2023-02-23T19:39:15.560Z,99.69
2023-02-23T19:41:45.737Z,100.00
2023-02-23T19:44:14.609Z,100.00
2023-02-23T19:46:43.519Z,100.00
2023-02-23T19:49:13.073Z,100.00
2023-02-23T19:51:44.334Z,96.33
2023-02-23T19:54:13.262Z,91.17
2023-02-23T19:56:43.389Z,88.39
2023-02-23T19:59:12.308Z,92.08
2023-02-23T20:01:41.238Z,93.25
2023-02-23T20:04:10.062Z,90.40
2023-02-23T20:06:44.696Z,89.76
2023-02-23T20:09:15.645Z,93.48
2023-02-23T20:11:44.528Z,94.83
2023-02-23T20:14:13.364Z,98.87
2023-02-23T20:16:42.314Z,94.12
2023-02-23T20:19:11.726Z,95.09
2023-02-23T20:21:42.171Z,99.05
2023-02-23T20:24:12.819Z,99.00
2023-02-23T20:26:43.222Z,93.47
2023-02-23T20:29:17.930Z,92.43
2023-02-23T20:31:50.771Z,89.43
2023-02-23T20:34:24.024Z,90.23
2023-02-23T20:36:53.922Z,89.21
2023-02-23T20:39:24.365Z,88.74
2023-02-23T20:41:54.709Z,89.17
2023-02-23T20:44:25.448Z,91.29
2023-02-23T20:46:54.363Z,89.72
2023-02-23T20:49:24.431Z,89.07
2023-02-23T20:51:53.272Z,87.04
2023-02-23T20:54:22.316Z,86.67
2023-02-23T20:56:58.938Z,85.76
2023-02-23T20:59:31.072Z,89.61
2023-02-23T21:02:02.460Z,86.74
2023-02-23T21:04:32.189Z,85.08
2023-02-23T21:07:01.107Z,82.12
2023-02-23T21:09:30.799Z,81.03
2023-02-23T21:11:59.747Z,84.23
2023-02-23T21:14:29.933Z,82.08
2023-02-23T21:16:58.832Z,83.29
2023-02-23T21:19:27.715Z,82.57
2023-02-23T21:21:58.052Z,84.49
2023-02-23T21:24:27.605Z,82.89
2023-02-23T21:26:56.417Z,82.18
2023-02-23T21:29:25.246Z,83.36
2023-02-23T21:31:55.849Z,82.69
2023-02-23T21:34:24.755Z,78.39
2023-02-23T21:36:53.902Z,79.33
2023-02-23T21:39:22.820Z,80.00
2023-02-23T21:41:51.712Z,78.68
2023-02-23T21:44:20.626Z,80.33
2023-02-23T21:46:50.709Z,79.21
2023-02-23T21:49:21.468Z,78.91
2023-02-23T21:51:51.908Z,87.18
2023-02-23T21:54:21.552Z,77.94
2023-02-23T21:56:50.688Z,76.30
2023-02-23T21:59:20.440Z,78.70
2023-02-23T22:01:49.385Z,80.77
2023-02-23T22:04:19.195Z,78.45
2023-02-23T22:06:49.407Z,78.19
2023-02-23T22:09:18.643Z,78.20
2023-02-23T22:11:48.646Z,78.79
2023-02-23T22:14:18.061Z,80.06
2023-02-23T22:16:47.753Z,78.90
2023-02-23T22:19:17.147Z,80.03
2023-02-23T22:21:47.851Z,78.90
2023-02-23T22:24:18.856Z,79.03
2023-02-23T22:26:50.649Z,79.57
2023-02-23T22:29:19.627Z,79.47
2023-02-23T22:31:48.985Z,80.69
2023-02-23T22:34:19.374Z,80.13
2023-02-23T22:36:50.053Z,79.85
2023-02-23T22:39:20.355Z,78.56
2023-02-23T22:41:49.557Z,79.10
2023-02-23T22:44:21.201Z,81.77
2023-02-23T22:46:50.232Z,81.62
2023-02-23T22:49:20.070Z,80.82
2023-02-23T22:51:50.616Z,81.57
2023-02-23T22:54:23.799Z,80.19
2023-02-23T22:56:52.953Z,79.75
2023-02-23T22:59:21.838Z,79.78
2023-02-23T23:01:50.718Z,79.78
2023-02-23T23:04:22.121Z,81.98
2023-02-23T23:06:51.596Z,80.43
2023-02-23T23:09:22.168Z,79.49
2023-02-23T23:11:52.009Z,78.79
2023-02-23T23:14:21.309Z,78.06
2023-02-23T23:16:51.070Z,78.59
2023-02-23T23:19:24.364Z,79.95
2023-02-23T23:21:55.722Z,79.44
2023-02-23T23:24:26.542Z,79.30
2023-02-23T23:27:00.239Z,78.81
2023-02-23T23:29:30.747Z,79.41
2023-02-23T23:32:01.026Z,78.66
2023-02-23T23:34:33.599Z,77.80
2023-02-23T23:37:02.851Z,77.95
2023-02-23T23:39:33.246Z,77.83
2023-02-23T23:42:03.604Z,78.32
2023-02-23T23:44:33.906Z,78.11
2023-02-23T23:47:05.511Z,76.89
2023-02-23T23:49:37.941Z,77.54
2023-02-23T23:52:07.503Z,78.22
2023-02-23T23:54:41.302Z,78.00
2023-02-23T23:57:11.476Z,77.87
2023-02-23T23:59:46.224Z,77.76
